Time;durP1;ratioP1;P1;durP2;ratioP2;P2;SDS_P1;SDS_P2;PMS_P1;PMS_P2;Temp;Humidity;BMP_temperature;BMP_pressure;BME280_temperature;BME280_humidity;BME280_pressure;Samples;Min_cycle;Max_cycle;Signal;HPM_P1;HPM_P2
2022/09/09 00:01:49;;;;;;;;;;;;;;;16.25;100.00;97834.91;5075368;28;19929;-79
2022/09/09 00:04:25;;;;;;;;;;;;;;;16.42;100.00;97845.66;5057807;28;19995;-79
2022/09/09 00:07:11;;;;;;;;;;;;;;;16.53;100.00;97843.00;5075575;28;19970;-79
2022/09/09 00:09:46;;;;;;;;;;;;;;;16.52;100.00;97838.66;5075480;28;19929;-79
2022/09/09 00:12:17;;;;;;;;;;;;;;;16.57;100.00;97835.91;5057620;28;19951;-79
2022/09/09 00:14:59;;;;;;;;;;;;;;;16.65;100.00;97841.88;5075096;28;19924;-79
2022/09/09 00:17:41;;;;;;;;;;;;;;;16.54;100.00;97845.34;5057673;28;20295;-79
2022/09/09 00:20:14;;;;;;;;;;;;;;;16.57;100.00;97846.41;5057409;28;19924;-79
2022/09/09 00:22:47;;;;;;;;;;;;;;;16.38;100.00;97845.09;5075248;28;20354;-79
2022/09/09 00:25:17;;;;;;;;;;;;;;;16.49;100.00;97846.06;5075164;28;19928;-79
2022/09/09 00:27:46;;;;;;;;;;;;;;;16.63;100.00;97850.09;5075083;28;19929;-79
2022/09/09 00:30:19;;;;;;;;;;;;;;;16.72;100.00;97847.13;5056873;28;20384;-79
2022/09/09 00:32:47;;;;;;;;;;;;;;;16.84;100.00;97851.63;5040757;28;19925;-79
2022/09/09 00:35:22;;;;;;;;;;;;;;;16.74;100.00;97848.19;5040605;28;20387;-79
2022/09/09 00:37:51;;;;;;;;;;;;;;;16.56;100.00;97842.81;5040436;28;19951;-79
2022/09/09 00:40:22;;;;;;;;;;;;;;;16.63;100.00;97845.22;5056766;28;19924;-79
2022/09/09 00:42:54;;;;;;;;;;;;;;;16.60;100.00;97842.63;5056729;28;19925;-79
2022/09/09 00:45:21;;;;;;;;;;;;;;;16.65;100.00;97844.72;5056930;28;19935;-79
2022/09/09 00:47:51;;;;;;;;;;;;;;;16.60;100.00;97851.06;5040391;28;19928;-79
2022/09/09 00:50:24;;;;;;;;;;;;;;;16.54;100.00;97853.81;5074630;28;19978;-79
2022/09/09 00:53:10;;;;;;;;;;;;;;;16.61;100.00;97844.16;5056975;28;19925;-79
2022/09/09 00:55:56;;;;;;;;;;;;;;;16.55;100.00;97849.72;5074759;28;20095;-79
2022/09/09 00:58:23;;;;;;;;;;;;;;;16.59;100.00;97849.50;5056457;28;19924;-79
2022/09/09 01:00:52;;;;;;;;;;;;;;;16.66;100.00;97843.47;5056710;28;19932;-79
2022/09/09 01:03:24;;;;;;;;;;;;;;;16.59;100.00;97844.66;5074410;28;19925;-79
2022/09/09 01:05:51;;;;;;;;;;;;;;;16.60;100.00;97845.44;5074490;28;20318;-79
2022/09/09 01:08:31;;;;;;;;;;;;;;;16.67;100.00;97848.59;5074260;28;20414;-79
2022/09/09 01:10:59;;;;;;;;;;;;;;;17.00;100.00;97845.41;5056503;28;20027;-79
2022/09/09 01:13:30;;;;;;;;;;;;;;;16.94;100.00;97845.34;5056261;28;19925;-79
2022/09/09 01:16:02;;;;;;;;;;;;;;;16.90;100.00;97838.38;5056483;28;19950;-79
2022/09/09 01:18:35;;;;;;;;;;;;;;;17.06;100.00;97843.41;5056351;28;20390;-79
2022/09/09 01:21:21;;;;;;;;;;;;;;;16.97;100.00;97843.56;5023135;28;19924;-80
2022/09/09 01:23:53;;;;;;;;;;;;;;;16.78;100.00;97839.50;5039893;28;19978;-79
2022/09/09 01:26:27;;;;;;;;;;;;;;;16.92;100.00;97845.06;5038807;28;20363;-79
2022/09/09 01:28:57;;;;;;;;;;;;;;;16.88;100.00;97844.50;5039542;28;19931;-79
2022/09/09 01:31:42;;;;;;;;;;;;;;;16.71;100.00;97843.53;5056064;28;19924;-79
2022/09/09 01:34:14;;;;;;;;;;;;;;;16.17;100.00;97847.88;5072799;28;20389;-79
2022/09/09 01:36:46;;;;;;;;;;;;;;;16.56;100.00;97856.13;5055990;28;19974;-79
2022/09/09 01:39:13;;;;;;;;;;;;;;;16.63;100.00;97850.09;5039348;28;19929;-79
2022/09/09 01:41:41;;;;;;;;;;;;;;;16.67;100.00;97842.19;5039279;28;19929;-79
2022/09/09 01:44:11;;;;;;;;;;;;;;;16.50;100.00;97847.59;5055797;28;20384;-79
2022/09/09 01:46:40;;;;;;;;;;;;;;;16.65;100.00;97842.69;5039777;28;20011;-79
2022/09/09 01:49:13;;;;;;;;;;;;;;;16.59;100.00;97841.03;5055791;28;19932;-79
2022/09/09 01:51:42;;;;;;;;;;;;;;;16.73;100.00;97843.03;5055618;28;20349;-80
2022/09/09 01:54:12;;;;;;;;;;;;;;;16.57;100.00;97835.91;5038779;28;19924;-80
2022/09/09 01:56:42;;;;;;;;;;;;;;;16.43;100.00;97841.56;5054324;28;20372;-80
2022/09/09 01:59:18;;;;;;;;;;;;;;;16.51;100.00;97845.56;5054036;28;19925;-79
2022/09/09 02:02:02;;;;;;;;;;;;;;;16.78;100.00;97847.97;5070932;28;19932;-79
2022/09/09 02:04:40;;;;;;;;;;;;;;;16.86;100.00;97843.44;5038139;28;19924;-79
2022/09/09 02:07:21;;;;;;;;;;;;;;;16.92;100.00;97842.25;5037978;28;19924;-80
2022/09/09 02:09:51;;;;;;;;;;;;;;;16.74;100.00;97841.75;5054142;28;19931;-79
2022/09/09 02:12:23;;;;;;;;;;;;;;;16.82;100.00;97846.50;5055163;28;19925;-79
2022/09/09 02:15:02;;;;;;;;;;;;;;;16.80;100.00;97842.59;5022826;28;19970;-79
2022/09/09 02:17:42;;;;;;;;;;;;;;;16.72;100.00;97836.59;5038677;28;20037;-79
2022/09/09 02:20:14;;;;;;;;;;;;;;;16.90;100.00;97838.38;5055154;28;19932;-79
2022/09/09 02:22:55;;;;;;;;;;;;;;;16.73;100.00;97832.53;5023801;28;19928;-79
2022/09/09 02:25:26;;;;;;;;;;;;;;;16.18;100.00;97829.72;5054766;28;19932;-79
2022/09/09 02:27:58;;;;;;;;;;;;;;;16.34;100.00;97833.25;5039053;28;20344;-79
2022/09/09 02:30:27;;;;;;;;;;;;;;;16.44;100.00;97837.50;5055121;28;19924;-79
2022/09/09 02:32:58;;;;;;;;;;;;;;;16.36;100.00;97833.53;5055292;28;19930;-79
2022/09/09 02:35:43;;;;;;;;;;;;;;;16.38;100.00;97833.81;5038618;28;20341;-79
2022/09/09 02:38:12;;;;;;;;;;;;;;;16.19;100.00;97836.13;5053976;28;19924;-80
2022/09/09 02:40:45;;;;;;;;;;;;;;;16.14;100.00;97828.38;5054863;28;19952;-79
2022/09/09 02:43:16;;;;;;;;;;;;;;;15.95;100.00;97839.09;5038462;28;19948;-79
2022/09/09 02:46:02;;;;;;;;;;;;;;;15.97;100.00;97827.31;5038616;28;19932;-79
2022/09/09 02:48:34;;;;;;;;;;;;;;;16.14;100.00;97826.31;5054946;28;20358;-79
2022/09/09 02:51:02;;;;;;;;;;;;;;;15.99;100.00;97833.25;5055025;28;20019;-79
2022/09/09 02:53:43;;;;;;;;;;;;;;;15.90;100.00;97828.50;5021766;28;20314;-79
2022/09/09 02:56:15;;;;;;;;;;;;;;;15.60;100.00;97838.25;5054974;28;19932;-79
2022/09/09 02:58:44;;;;;;;;;;;;;;;15.99;100.00;97836.84;5054628;28;19931;-79
2022/09/09 03:01:11;;;;;;;;;;;;;;;16.11;100.00;97838.56;5054973;28;19932;-79
2022/09/09 03:03:39;;;;;;;;;;;;;;;15.65;100.00;97837.56;5054782;28;19946;-79
2022/09/09 03:06:11;;;;;;;;;;;;;;;15.96;100.00;97840.63;5054899;28;19926;-79
2022/09/09 03:08:39;;;;;;;;;;;;;;;15.55;100.00;97833.31;5054090;28;19924;-79
2022/09/09 03:11:09;;;;;;;;;;;;;;;15.71;100.00;97844.06;5054869;28;19929;-79
2022/09/09 03:13:37;;;;;;;;;;;;;;;15.16;100.00;97843.03;5038210;28;19925;-79
2022/09/09 03:16:05;;;;;;;;;;;;;;;15.48;100.00;97844.19;5054741;28;20287;-79
2022/09/09 03:18:38;;;;;;;;;;;;;;;15.73;100.00;97847.19;5037994;28;19935;-79
2022/09/09 03:21:06;;;;;;;;;;;;;;;15.98;100.00;97845.78;5054513;28;19924;-79
2022/09/09 03:23:33;;;;;;;;;;;;;;;16.07;100.00;97837.19;5054320;28;19978;-79
2022/09/09 03:26:02;;;;;;;;;;;;;;;16.18;100.00;97855.06;5037920;28;20011;-80
2022/09/09 03:28:43;;;;;;;;;;;;;;;16.05;100.00;97846.13;5054526;28;20019;-80
2022/09/09 03:31:10;;;;;;;;;;;;;;;15.95;100.00;97850.34;5038252;28;19928;-79
2022/09/09 03:33:41;;;;;;;;;;;;;;;15.83;100.00;97845.81;5054478;28;20375;-79
2022/09/09 03:36:11;;;;;;;;;;;;;;;15.72;100.00;97851.25;5038728;28;20379;-79
2022/09/09 03:38:38;;;;;;;;;;;;;;;15.75;100.00;97850.28;5053957;28;20337;-79
2022/09/09 03:41:06;;;;;;;;;;;;;;;15.81;100.00;97848.31;5054445;28;19928;-80
2022/09/09 03:43:34;;;;;;;;;;;;;;;15.93;100.00;97855.69;5021522;28;19925;-79
2022/09/09 03:46:01;;;;;;;;;;;;;;;16.06;100.00;97850.53;5054308;28;20276;-79
2022/09/09 03:48:28;;;;;;;;;;;;;;;16.10;100.00;97859.56;5021827;28;19956;-79
2022/09/09 03:50:57;;;;;;;;;;;;;;;15.86;100.00;97849.69;5057934;28;20291;-79
2022/09/09 03:53:25;;;;;;;;;;;;;;;16.05;100.00;97863.03;5057731;28;19950;-79
2022/09/09 03:55:54;;;;;;;;;;;;;;;16.12;100.00;97851.41;5057903;28;19974;-79
2022/09/09 03:58:26;;;;;;;;;;;;;;;16.13;100.00;97852.16;5057899;28;19998;-79
2022/09/09 04:01:05;;;;;;;;;;;;;;;15.79;100.00;97856.50;5057811;28;20033;-79
2022/09/09 04:03:32;;;;;;;;;;;;;;;15.85;100.00;97859.41;5074544;28;19925;-79
2022/09/09 04:06:01;;;;;;;;;;;;;;;15.76;100.00;97857.47;5040895;28;19978;-79
2022/09/09 04:08:32;;;;;;;;;;;;;;;15.83;100.00;97857.06;5042055;28;19924;-79
2022/09/09 04:11:02;;;;;;;;;;;;;;;15.79;100.00;97861.34;5058701;28;19924;-81
2022/09/09 04:13:29;;;;;;;;;;;;;;;15.46;100.00;97872.81;5025587;28;20356;-80
2022/09/09 04:15:58;;;;;;;;;;;;;;;15.55;100.00;97858.66;5076147;28;19925;-80
2022/09/09 04:18:26;;;;;;;;;;;;;;;15.69;100.00;97869.13;5042063;28;19924;-79
2022/09/09 04:20:53;;;;;;;;;;;;;;;15.82;100.00;97863.97;5042035;28;19925;-80
2022/09/09 04:23:24;;;;;;;;;;;;;;;15.95;100.00;97872.09;5058639;28;19924;-80
2022/09/09 04:25:52;;;;;;;;;;;;;;;15.87;100.00;97860.47;5021932;28;20380;-80
2022/09/09 04:28:20;;;;;;;;;;;;;;;15.64;100.00;97867.00;5038480;28;19931;-80
2022/09/09 04:30:48;;;;;;;;;;;;;;;15.76;100.00;97873.59;5055078;28;20423;-79
2022/09/09 04:33:15;;;;;;;;;;;;;;;15.68;100.00;97861.94;5038291;28;19925;-79
2022/09/09 04:35:47;;;;;;;;;;;;;;;15.51;100.00;97858.06;5054705;28;19925;-80
2022/09/09 04:38:15;;;;;;;;;;;;;;;15.50;100.00;97864.97;5054888;28;19948;-79
2022/09/09 04:40:46;;;;;;;;;;;;;;;15.15;100.00;97869.63;5038324;28;20027;-80
2022/09/09 04:43:14;;;;;;;;;;;;;;;14.97;100.00;97874.63;5038525;28;20283;-79
2022/09/09 04:45:43;;;;;;;;;;;;;;;14.86;100.00;97886.44;5054883;28;19940;-80
2022/09/09 04:48:11;;;;;;;;;;;;;;;15.21;100.00;97883.81;5054823;28;20335;-79
2022/09/09 04:50:38;;;;;;;;;;;;;;;15.67;100.00;97882.94;5037934;28;19936;-79
2022/09/09 04:53:05;;;;;;;;;;;;;;;15.90;100.00;97884.84;5054672;28;19951;-80
2022/09/09 04:55:36;;;;;;;;;;;;;;;15.60;100.00;97877.66;5054632;28;19929;-79
2022/09/09 04:58:04;;;;;;;;;;;;;;;15.30;100.00;97880.91;5054643;28;19975;-79
2022/09/09 05:00:32;;;;;;;;;;;;;;;15.38;100.00;97891.34;5053746;28;19925;-80
2022/09/09 05:03:05;;;;;;;;;;;;;;;15.67;100.00;97893.41;5054564;28;20276;-80
2022/09/09 05:05:35;;;;;;;;;;;;;;;15.77;100.00;97892.81;5054371;28;19971;-80
2022/09/09 05:08:04;;;;;;;;;;;;;;;16.25;100.00;97905.38;5054499;28;19925;-80
2022/09/09 05:10:32;;;;;;;;;;;;;;;16.38;100.00;97896.59;5052883;28;20348;-79
2022/09/09 05:12:59;;;;;;;;;;;;;;;16.47;100.00;97898.53;5037976;28;19925;-80
2022/09/09 05:15:29;;;;;;;;;;;;;;;16.54;100.00;97898.16;5037858;28;19951;-80
2022/09/09 05:18:00;;;;;;;;;;;;;;;16.27;100.00;97897.22;5054190;28;19925;-80
2022/09/09 05:20:29;;;;;;;;;;;;;;;15.67;100.00;97899.81;5021624;28;20348;-80
2022/09/09 05:22:56;;;;;;;;;;;;;;;16.01;100.00;97904.75;5054402;28;19925;-79
2022/09/09 05:25:27;;;;;;;;;;;;;;;16.11;100.00;97905.41;5041141;28;19954;-80
2022/09/09 05:27:55;;;;;;;;;;;;;;;16.06;100.00;97909.69;5057548;28;19924;-80
2022/09/09 05:30:24;;;;;;;;;;;;;;;16.25;100.00;97905.38;5024610;28;19963;-80
2022/09/09 05:32:51;;;;;;;;;;;;;;;16.30;100.00;97918.00;5040660;28;19947;-80
2022/09/09 05:35:18;;;;;;;;;;;;;;;16.36;100.00;97915.28;5041098;28;19928;-80
2022/09/09 05:37:45;;;;;;;;;;;;;;;15.75;100.00;97912.22;5075053;28;19925;-80
2022/09/09 05:40:13;;;;;;;;;;;;;;;15.59;100.00;97921.16;5040613;28;19925;-80
2022/09/09 05:42:40;;;;;;;;;;;;;;;15.95;100.00;97915.13;5040792;28;20466;-80
2022/09/09 05:45:08;;;;;;;;;;;;;;;16.08;100.00;97912.03;5057408;28;19924;-80
2022/09/09 05:47:37;;;;;;;;;;;;;;;16.33;100.00;97910.63;5040588;28;20031;-80
2022/09/09 05:50:07;;;;;;;;;;;;;;;16.40;100.00;97913.03;5041209;28;19924;-80
2022/09/09 05:52:34;;;;;;;;;;;;;;;16.41;100.00;97906.91;5074881;28;20292;-80
2022/09/09 05:55:04;;;;;;;;;;;;;;;16.30;100.00;97920.81;5057014;28;19924;-80
2022/09/09 05:57:31;;;;;;;;;;;;;;;16.17;100.00;97926.78;5056960;28;19932;-80
2022/09/09 05:59:58;;;;;;;;;;;;;;;16.23;100.00;97919.19;5074749;28;19924;-80
2022/09/09 06:02:25;;;;;;;;;;;;;;;16.25;100.00;97924.34;5039878;28;19979;-80
2022/09/09 06:04:52;;;;;;;;;;;;;;;16.37;100.00;97916.81;5056688;28;19947;-80
2022/09/09 06:07:23;;;;;;;;;;;;;;;16.36;100.00;97929.38;5056912;28;19925;-80
2022/09/09 06:09:51;;;;;;;;;;;;;;;16.13;100.00;97920.56;5056575;28;20245;-80
2022/09/09 06:12:18;;;;;;;;;;;;;;;15.79;100.00;97935.34;5040183;28;20291;-80
2022/09/09 06:14:46;;;;;;;;;;;;;;;15.89;100.00;97928.34;5040083;28;19951;-80
2022/09/09 06:17:14;;;;;;;;;;;;;;;16.07;100.00;97936.59;5056402;28;19965;-80
2022/09/09 06:19:41;;;;;;;;;;;;;;;16.24;100.00;97943.28;5039816;28;19947;-80
2022/09/09 06:22:11;;;;;;;;;;;;;;;16.27;100.00;97953.59;5056528;28;19935;-80
2022/09/09 06:24:39;;;;;;;;;;;;;;;16.45;100.00;97946.22;5023586;28;19935;-80
2022/09/09 06:27:06;;;;;;;;;;;;;;;16.52;100.00;97945.78;5056394;28;19924;-80
2022/09/09 06:29:36;;;;;;;;;;;;;;;16.22;100.00;97939.41;5056550;28;20271;-80
2022/09/09 06:32:03;;;;;;;;;;;;;;;16.22;100.00;97937.34;5039240;28;20372;-80
2022/09/09 06:34:31;;;;;;;;;;;;;;;16.08;100.00;97946.59;5039979;28;19934;-80
2022/09/09 06:37:00;;;;;;;;;;;;;;;16.38;100.00;97947.34;5040453;28;20363;-80
2022/09/09 06:39:48;;;;;;;;;;;;;;;16.57;100.00;97954.31;5056440;28;19990;-80
2022/09/09 06:42:15;;;;;;;;;;;;;;;16.43;100.00;97948.69;5054911;28;19972;-79
2022/09/09 06:44:42;;;;;;;;;;;;;;;16.26;100.00;97956.91;5057616;28;19931;-80
2022/09/09 06:47:14;;;;;;;;;;;;;;;16.35;100.00;97958.81;5055914;28;19925;-80
2022/09/09 06:49:43;;;;;;;;;;;;;;;16.18;100.00;97962.16;5074013;28;19939;-80
2022/09/09 06:52:13;;;;;;;;;;;;;;;16.48;100.00;97968.53;5056121;28;19932;-80
2022/09/09 06:54:41;;;;;;;;;;;;;;;16.69;100.00;97972.19;5038125;28;20019;-80
2022/09/09 06:57:08;;;;;;;;;;;;;;;16.66;100.00;97973.19;5054449;28;19928;-80
2022/09/09 06:59:48;;;;;;;;;;;;;;;16.84;100.00;97967.28;5054800;28;20291;-79
2022/09/09 07:02:15;;;;;;;;;;;;;;;16.66;100.00;97978.81;5055064;28;19931;-80
2022/09/09 07:04:43;;;;;;;;;;;;;;;16.84;100.00;97967.28;5055167;28;20291;-80
2022/09/09 07:07:12;;;;;;;;;;;;;;;17.02;100.00;97978.31;5055503;28;19975;-79
2022/09/09 07:09:40;;;;;;;;;;;;;;;17.06;100.00;97973.22;5055334;28;20032;-79
2022/09/09 07:12:07;;;;;;;;;;;;;;;17.20;100.00;97978.81;5055657;28;19924;-80
2022/09/09 07:14:37;;;;;;;;;;;;;;;17.03;100.00;97979.84;5055649;28;20020;-79
2022/09/09 07:17:07;;;;;;;;;;;;;;;17.30;100.00;97993.56;5038502;28;20398;-79
2022/09/09 07:19:37;;;;;;;;;;;;;;;16.75;100.00;97989.97;5044576;28;19981;-79
2022/09/09 07:22:06;;;;;;;;;;;;;;;16.71;100.00;97998.63;5066634;28;19970;-80
2022/09/09 07:24:34;;;;;;;;;;;;;;;16.97;100.00;98004.41;5056244;28;19939;-79
2022/09/09 07:27:03;;;;;;;;;;;;;;;17.38;100.00;98003.94;5057083;28;19924;-80
2022/09/09 07:29:30;;;;;;;;;;;;;;;17.56;100.00;97998.03;5055668;28;19930;-80
2022/09/09 07:31:58;;;;;;;;;;;;;;;17.59;100.00;97999.09;5057269;28;19970;-80
2022/09/09 07:34:30;;;;;;;;;;;;;;;17.74;100.00;98006.19;5058121;28;19964;-80
2022/09/09 07:36:57;;;;;;;;;;;;;;;17.81;100.00;98005.75;5041059;28;19931;-80
2022/09/09 07:39:25;;;;;;;;;;;;;;;17.83;100.00;97999.59;5058161;28;19928;-80
2022/09/09 07:41:54;;;;;;;;;;;;;;;17.61;100.00;98002.97;5058285;28;20390;-79
2022/09/09 07:44:24;;;;;;;;;;;;;;;17.68;100.00;98001.75;5041256;28;20384;-80
2022/09/09 07:47:05;;;;;;;;;;;;;;;17.29;100.00;98009.72;5058095;28;20030;-80
2022/09/09 07:49:40;;;;;;;;;;;;;;;16.89;100.00;98006.84;5074625;28;19933;-79
2022/09/09 07:52:08;;;;;;;;;;;;;;;17.55;100.00;98004.19;5057999;28;20023;-79
2022/09/09 07:54:38;;;;;;;;;;;;;;;17.40;100.00;98017.56;5041552;28;19932;-79
2022/09/09 07:57:06;;;;;;;;;;;;;;;17.34;100.00;98011.06;5057891;28;19930;-80
2022/09/09 07:59:35;;;;;;;;;;;;;;;17.53;100.00;98012.34;5041277;28;19978;-80
2022/09/09 08:02:03;;;;;;;;;;;;;;;17.90;100.00;98019.72;5057944;28;19931;-80
2022/09/09 08:04:33;;;;;;;;;;;;;;;18.27;100.00;98019.84;5057678;28;19956;-80
2022/09/09 08:07:03;;;;;;;;;;;;;;;18.53;100.00;98026.28;5057718;28;19935;-80
2022/09/09 08:09:36;;;;;;;;;;;;;;;18.42;100.00;98025.41;5057697;28;20411;-80
2022/09/09 08:12:12;;;;;;;;;;;;;;;18.14;100.00;98027.94;5057619;28;20041;-80
2022/09/09 08:14:40;;;;;;;;;;;;;;;18.19;100.00;98030.03;5041068;28;19928;-80
2022/09/09 08:17:08;;;;;;;;;;;;;;;18.64;100.00;98031.25;5057492;28;20437;-80
2022/09/09 08:19:35;;;;;;;;;;;;;;;18.85;100.00;98027.03;5075446;28;19947;-80
2022/09/09 08:22:07;;;;;;;;;;;;;;;18.97;100.00;98032.28;5041705;28;19931;-82
2022/09/09 08:24:36;;;;;;;;;;;;;;;19.12;100.00;98038.56;5025192;28;19970;-82
2022/09/09 08:27:03;;;;;;;;;;;;;;;18.47;100.00;98033.94;5057770;28;19924;-82
2022/09/09 08:29:31;;;;;;;;;;;;;;;18.57;100.00;98032.47;5041685;28;19924;-80
2022/09/09 08:31:59;;;;;;;;;;;;;;;18.97;100.00;98032.28;5058138;28;19924;-79
2022/09/09 08:34:27;;;;;;;;;;;;;;;19.44;100.00;98037.22;5057646;28;19946;-79
2022/09/09 08:36:57;;;;;;;;;;;;;;;19.58;100.00;98046.81;5075280;28;19977;-79
2022/09/09 08:39:32;;;;;;;;;;;;;;;19.43;100.00;98043.41;5058088;28;19924;-80
2022/09/09 08:42:09;;;;;;;;;;;;;;;19.43;100.00;98040.56;5074374;28;19940;-79
2022/09/09 08:44:50;;;;;;;;;;;;;;;19.63;100.00;98043.22;5041929;28;19950;-80
2022/09/09 08:47:25;;;;;;;;;;;;;;;19.65;100.00;98046.31;5058127;28;19924;-81
2022/09/09 08:50:02;;;;;;;;;;;;;;;19.44;100.00;98048.56;5041933;28;20417;-80
2022/09/09 08:52:41;;;;;;;;;;;;;;;19.55;100.00;98042.91;5057899;28;19928;-80
2022/09/09 08:55:28;;;;;;;;;;;;;;;19.72;100.00;98037.31;5057746;28;20294;-80
2022/09/09 08:57:58;;;;;;;;;;;;;;;19.83;100.00;98043.03;5057277;28;19925;-79
2022/09/09 09:00:30;;;;;;;;;;;;;;;19.70;100.00;98042.75;5024778;28;20441;-78
2022/09/09 09:03:00;;;;;;;;;;;;;;;19.97;100.00;98050.56;5057610;28;20324;-80
2022/09/09 09:06:06;;;;;;;;;;;;;;;19.78;100.00;98043.03;5057422;28;19967;-79
2022/09/09 09:09:03;;;;;;;;;;;;;;;19.86;100.00;98047.69;4977341;28;20480;-79
2022/09/09 09:11:52;;;;;;;;;;;;;;;20.40;100.00;98048.38;4919536;29;19930;-79
2022/09/09 09:14:25;;;;;;;;;;;;;;;20.55;100.00;98048.91;4919819;29;20376;-79
2022/09/09 09:17:06;;;;;;;;;;;;;;;20.71;100.00;98039.59;4935719;29;19945;-79
2022/09/09 09:19:34;;;;;;;;;;;;;;;20.90;100.00;98038.56;4935369;29;19931;-80
2022/09/09 09:22:18;;;;;;;;;;;;;;;21.47;100.00;98032.28;4919490;29;20017;-79
2022/09/09 09:25:04;;;;;;;;;;;;;;;21.63;100.00;98034.28;4899990;29;19927;-80
2022/09/09 09:27:34;;;;;;;;;;;;;;;22.09;100.00;98025.84;4935321;29;19973;-80
2022/09/09 09:30:14;;;;;;;;;;;;;;;22.23;100.00;98033.25;4919505;29;19927;-80
2022/09/09 09:32:55;;;;;;;;;;;;;;;22.06;100.00;98032.56;4918797;29;20033;-79
2022/09/09 09:35:23;;;;;;;;;;;;;;;22.11;100.00;98042.38;4918236;29;19926;-79
2022/09/09 09:37:52;;;;;;;;;;;;;;;22.39;100.00;98049.44;4934374;29;19954;-80
2022/09/09 09:40:48;;;;;;;;;;;;;;;22.30;100.00;98052.59;4978810;28;19925;-80
2022/09/09 09:43:20;;;;;;;;;;;;;;;22.12;100.00;98058.13;4992012;28;19933;-79
2022/09/09 09:45:48;;;;;;;;;;;;;;;21.78;100.00;98051.84;4992983;28;20016;-79
2022/09/09 09:48:22;;;;;;;;;;;;;;;21.56;100.00;98051.91;5029496;28;20340;-80
2022/09/09 09:51:10;;;;;;;;;;;;;;;21.57;100.00;98061.22;5056675;28;19925;-79
2022/09/09 09:53:39;;;;;;;;;;;;;;;21.42;100.00;98057.91;5056710;28;19955;-79
2022/09/09 09:56:10;;;;;;;;;;;;;;;21.73;100.00;98066.03;5056584;28;19924;-79
2022/09/09 09:58:45;;;;;;;;;;;;;;;20.80;100.00;98065.69;5056513;28;20287;-79
2022/09/09 10:01:21;;;;;;;;;;;;;;;21.10;100.00;98082.97;5055136;28;19983;-79
2022/09/09 10:03:52;;;;;;;;;;;;;;;20.27;100.00;98076.44;5052830;28;19924;-79
2022/09/09 10:06:33;;;;;;;;;;;;;;;19.40;100.00;98075.56;5055943;28;19928;-79
2022/09/09 10:09:02;;;;;;;;;;;;;;;19.73;100.00;98087.81;5056240;28;19928;-79
2022/09/09 10:11:52;;;;;;;;;;;;;;;19.99;100.00;98073.53;5073942;28;19932;-78
2022/09/09 10:14:38;;;;;;;;;;;;;;;20.12;100.00;98073.81;5039676;28;20283;-79
2022/09/09 10:17:26;;;;;;;;;;;;;;;20.49;100.00;98077.25;5073754;28;19925;-79
2022/09/09 10:20:12;;;;;;;;;;;;;;;20.54;100.00;98085.00;5055534;28;19924;-79
2022/09/09 10:22:43;;;;;;;;;;;;;;;20.97;100.00;98074.22;5073792;28;19924;-79
2022/09/09 10:25:26;;;;;;;;;;;;;;;21.42;100.00;98078.53;5055686;28;19928;-79
2022/09/09 10:28:02;;;;;;;;;;;;;;;21.58;100.00;98072.06;5073755;28;19928;-79
2022/09/09 10:30:32;;;;;;;;;;;;;;;21.86;100.00;98086.19;5073688;28;20375;-79
2022/09/09 10:33:11;;;;;;;;;;;;;;;22.26;100.00;98086.25;5073658;28;19928;-79
2022/09/09 10:35:54;;;;;;;;;;;;;;;22.34;100.00;98081.53;5056079;28;19960;-79
2022/09/09 10:38:38;;;;;;;;;;;;;;;22.31;100.00;98076.91;5073420;28;20398;-78
2022/09/09 10:41:11;;;;;;;;;;;;;;;22.19;100.00;98097.44;5073543;28;19924;-80
2022/09/09 10:43:39;;;;;;;;;;;;;;;22.46;100.00;98088.72;5055570;28;19949;-79
2022/09/09 10:46:24;;;;;;;;;;;;;;;22.52;100.00;98091.56;5073211;28;19964;-79
2022/09/09 10:49:10;;;;;;;;;;;;;;;22.00;100.00;98074.50;5073563;28;19925;-79
2022/09/09 10:51:56;;;;;;;;;;;;;;;21.80;100.00;98072.00;5039275;28;20399;-79
2022/09/09 10:54:23;;;;;;;;;;;;;;;21.72;100.00;98070.94;5072168;28;20324;-79
2022/09/09 10:56:56;;;;;;;;;;;;;;;21.97;100.00;98075.53;5057396;28;20026;-79
2022/09/09 10:59:26;;;;;;;;;;;;;;;22.39;100.00;98074.28;5075494;28;20379;-79
2022/09/09 11:01:53;;;;;;;;;;;;;;;22.81;100.00;98074.53;5077639;28;20442;-79
2022/09/09 11:04:20;;;;;;;;;;;;;;;22.63;100.00;98072.31;5076365;28;20256;-79
2022/09/09 11:06:52;;;;;;;;;;;;;;;22.46;100.00;98073.72;5075876;28;19932;-80
2022/09/09 11:09:21;;;;;;;;;;;;;;;23.24;100.00;98073.88;5077514;28;19931;-79
2022/09/09 11:11:52;;;;;;;;;;;;;;;23.29;100.00;98073.09;5058858;28;20365;-78
2022/09/09 11:14:20;;;;;;;;;;;;;;;23.61;100.00;98071.22;5076510;28;19929;-79
2022/09/09 11:16:53;;;;;;;;;;;;;;;22.90;100.00;98076.28;5059639;28;19928;-79
2022/09/09 11:19:38;;;;;;;;;;;;;;;22.27;100.00;98082.13;5077173;28;19928;-79
2022/09/09 11:22:25;;;;;;;;;;;;;;;22.22;100.00;98085.00;5077133;28;19925;-79
2022/09/09 11:25:00;;;;;;;;;;;;;;;21.84;100.00;98081.00;5077270;28;19928;-79
2022/09/09 11:27:27;;;;;;;;;;;;;;;21.77;100.00;98087.25;5077327;28;19928;-79
2022/09/09 11:29:54;;;;;;;;;;;;;;;21.74;100.00;98079.78;5059316;28;20007;-79
2022/09/09 11:32:39;;;;;;;;;;;;;;;22.20;100.00;98082.69;5076871;28;19943;-79
2022/09/09 11:35:06;;;;;;;;;;;;;;;22.46;100.00;98082.25;5076818;28;19931;-78
2022/09/09 11:37:42;;;;;;;;;;;;;;;22.32;100.00;98078.47;5058614;28;20298;-79
2022/09/09 11:40:09;;;;;;;;;;;;;;;22.82;100.00;98081.78;5059243;28;19931;-79
2022/09/09 11:42:36;;;;;;;;;;;;;;;23.08;100.00;98084.91;5077150;28;19925;-79
2022/09/09 11:45:24;;;;;;;;;;;;;;;23.03;100.00;98079.28;5076854;28;19924;-80
2022/09/09 11:47:52;;;;;;;;;;;;;;;23.43;100.00;98080.47;5076810;28;19928;-79
2022/09/09 11:50:19;;;;;;;;;;;;;;;23.08;100.00;98078.44;5076520;28;19925;-79
2022/09/09 11:52:50;;;;;;;;;;;;;;;23.55;100.00;98084.75;5058867;28;19928;-80
2022/09/09 11:55:32;;;;;;;;;;;;;;;22.62;100.00;98090.72;5076380;28;19924;-80
2022/09/09 11:58:01;;;;;;;;;;;;;;;22.69;100.00;98095.84;5075491;28;19924;-80
2022/09/09 12:00:33;;;;;;;;;;;;;;;22.38;100.00;98107.66;5075328;28;20019;-79
2022/09/09 12:03:00;;;;;;;;;;;;;;;22.05;100.00;98104.22;5076655;28;19925;-79
2022/09/09 12:05:42;;;;;;;;;;;;;;;21.94;100.00;98115.63;5076292;28;19975;-79
2022/09/09 12:08:11;;;;;;;;;;;;;;;21.00;100.00;98113.72;5058678;28;19924;-79
2022/09/09 12:10:39;;;;;;;;;;;;;;;21.61;100.00;98110.81;5058922;28;19924;-79
2022/09/09 12:13:09;;;;;;;;;;;;;;;21.89;100.00;98107.88;5076402;28;19924;-79
2022/09/09 12:15:46;;;;;;;;;;;;;;;22.18;100.00;98099.50;5041773;28;19974;-79
2022/09/09 12:18:20;;;;;;;;;;;;;;;21.52;100.00;98110.28;5076673;28;19993;-79
2022/09/09 12:20:54;;;;;;;;;;;;;;;20.55;100.00;98122.69;5076009;28;19925;-79
2022/09/09 12:23:35;;;;;;;;;;;;;;;20.11;100.00;98136.69;5076375;28;19929;-79
2022/09/09 12:26:14;;;;;;;;;;;;;;;20.59;100.00;98134.53;5038499;28;19952;-79
2022/09/09 12:29:03;;;;;;;;;;;;;;;20.67;100.00;98132.75;5056120;28;19925;-79
2022/09/09 12:31:38;;;;;;;;;;;;;;;20.40;100.00;98139.16;5056106;28;19925;-79
2022/09/09 12:34:13;;;;;;;;;;;;;;;19.86;100.00;98143.31;5055826;28;19931;-79
2022/09/09 12:36:41;;;;;;;;;;;;;;;19.72;100.00;98144.25;5056130;28;19970;-79
2022/09/09 12:39:17;;;;;;;;;;;;;;;19.69;100.00;98138.31;5070955;28;19924;-78
2022/09/09 12:41:56;;;;;;;;;;;;;;;19.84;100.00;98154.38;5055638;28;20030;-78
2022/09/09 12:44:24;;;;;;;;;;;;;;;20.08;100.00;98166.84;5056590;28;19925;-79
2022/09/09 12:46:52;;;;;;;;;;;;;;;20.36;100.00;98167.75;5055746;28;19982;-80
2022/09/09 12:49:41;;;;;;;;;;;;;;;19.85;100.00;98164.41;5055560;28;19931;-79
2022/09/09 12:52:16;;;;;;;;;;;;;;;20.14;100.00;98172.56;5038106;28;20379;-79
2022/09/09 12:54:44;;;;;;;;;;;;;;;19.81;100.00;98175.22;5055616;28;19933;-79
2022/09/09 12:57:12;;;;;;;;;;;;;;;19.32;100.00;98182.88;5054339;28;19929;-78
2022/09/09 12:59:41;;;;;;;;;;;;;;;19.80;100.00;98182.16;5054931;28;19924;-78
2022/09/09 13:02:19;;;;;;;;;;;;;;;20.21;100.00;98189.09;5054306;28;19995;-79